Time;durP1;ratioP1;P1;durP2;ratioP2;P2;SDS_P1;SDS_P2;PMS_P1;PMS_P2;Temp;Humidity;BMP_temperature;BMP_pressure;BME280_temperature;BME280_humidity;BME280_pressure;Samples;Min_cycle;Max_cycle;Signal;HPM_P1;HPM_P2
2023/09/17 00:03:00;;;;;;;10.00;9.00;;;;;;;21.40;56.16;99579.50;10510025;28;20611;-36
2023/09/17 00:08:03;;;;;;;9.93;8.90;;;;;;;21.36;56.44;99551.97;10511754;28;20250;-36
2023/09/17 00:13:05;;;;;;;11.18;8.75;;;;;;;21.74;56.14;99522.75;10511028;28;20633;-36
2023/09/17 00:18:07;;;;;;;9.93;8.93;;;;;;;20.52;59.30;99558.03;10516591;28;20228;-36
2023/09/17 00:23:10;;;;;;;9.23;8.23;;;;;;;21.13;57.45;99557.78;10518731;28;20345;-36
2023/09/17 00:28:12;;;;;;;8.93;8.00;;;;;;;20.46;58.69;99562.56;10519672;28;20715;-36
2023/09/17 00:33:13;;;;;;;10.35;9.15;;;;;;;20.58;58.30;99560.53;10515593;28;20234;-36
2023/09/17 00:38:15;;;;;;;10.75;8.73;;;;;;;21.47;55.98;99549.31;10520231;28;20727;-36
2023/09/17 00:43:18;;;;;;;10.05;9.00;;;;;;;19.91;60.50;99572.53;10519959;28;20211;-36
2023/09/17 00:48:20;;;;;;;11.20;9.05;;;;;;;20.06;60.17;99555.59;10515745;28;20246;-36
2023/09/17 00:53:22;;;;;;;10.57;8.95;;;;;;;23.15;52.91;99500.97;10517869;28;20686;-35
2023/09/17 00:58:24;;;;;;;10.30;8.88;;;;;;;23.11;52.72;99518.97;10518818;28;20227;-35
2023/09/17 01:03:27;;;;;;;11.82;8.55;;;;;;;22.30;53.85;99586.75;10515002;28;20207;-35
2023/09/17 01:08:30;;;;;;;9.45;7.93;;;;;;;23.03;51.61;99550.34;10513711;28;20242;-35
2023/09/17 01:13:34;;;;;;;10.07;7.78;;;;;;;23.22;51.42;99570.53;10516717;28;20235;-35
2023/09/17 01:18:36;;;;;;;10.15;9.13;;;;;;;22.93;52.72;99536.72;10513018;28;20367;-37
2023/09/17 01:23:54;;;;;;;10.20;8.75;;;;;;;23.67;50.77;99528.97;10518494;28;20603;-37
2023/09/17 01:28:59;;;;;;;12.43;9.05;;;;;;;23.97;49.94;99548.00;10515470;28;20245;-35
2023/09/17 01:34:01;;;;;;;12.52;8.68;;;;;;;23.29;50.99;99592.09;10515118;28;20789;-35
2023/09/17 01:39:18;;;;;;;11.73;9.10;;;;;;;21.80;54.49;99602.59;10515528;28;20704;-35
2023/09/17 01:44:24;;;;;;;10.65;8.90;;;;;;;22.52;52.77;99557.41;10515105;28;20248;-35
2023/09/17 01:49:32;;;;;;;11.27;8.75;;;;;;;23.00;51.71;99550.91;10514269;28;20235;-36
2023/09/17 01:54:34;;;;;;;10.15;9.05;;;;;;;22.59;52.44;99557.16;10514487;28;20233;-35
2023/09/17 01:59:36;;;;;;;10.35;9.10;;;;;;;23.68;50.53;99536.06;10516179;28;20738;-37
2023/09/17 02:04:37;;;;;;;11.75;9.32;;;;;;;22.43;52.57;99601.78;10512556;28;20672;-35
2023/09/17 02:09:39;;;;;;;11.05;8.45;;;;;;;22.21;53.68;99582.91;10515056;28;20235;-36
2023/09/17 02:14:42;;;;;;;12.60;9.45;;;;;;;22.40;52.40;99586.78;10515711;28;20230;-36
2023/09/17 02:19:44;;;;;;;9.95;8.85;;;;;;;22.59;52.10;99554.44;10512815;28;20641;-36
2023/09/17 02:24:46;;;;;;;10.18;8.80;;;;;;;23.05;51.26;99551.69;10514646;28;20815;-36
2023/09/17 02:29:48;;;;;;;10.02;9.02;;;;;;;21.99;52.64;99611.16;10511870;28;20238;-37
2023/09/17 02:34:50;;;;;;;10.98;9.88;;;;;;;21.66;53.70;99615.88;10511320;28;20687;-35
2023/09/17 02:39:52;;;;;;;12.27;10.25;;;;;;;22.46;51.79;99590.34;10508708;28;20288;-35
2023/09/17 02:44:53;;;;;;;10.00;8.88;;;;;;;23.23;50.17;99572.19;10511011;28;20237;-35
2023/09/17 02:49:55;;;;;;;10.73;9.63;;;;;;;23.40;50.06;99562.91;10514479;28;20715;-35
2023/09/17 02:54:57;;;;;;;10.05;8.55;;;;;;;23.74;49.09;99563.09;10513199;28;20305;-35
2023/09/17 02:59:59;;;;;;;10.77;9.40;;;;;;;22.97;50.73;99597.81;10509728;28;20246;-35
2023/09/17 03:05:01;;;;;;;9.73;8.68;;;;;;;23.37;49.54;99577.09;10509268;28;20772;-35
2023/09/17 03:10:07;;;;;;;11.00;9.00;;;;;;;23.32;49.77;99571.63;10513597;28;20312;-35
2023/09/17 03:15:09;;;;;;;12.43;9.07;;;;;;;23.21;49.49;99607.13;10512718;28;20261;-36
2023/09/17 03:20:16;;;;;;;10.73;9.45;;;;;;;22.57;51.24;99563.94;10511155;28;20237;-35
2023/09/17 03:25:19;;;;;;;11.40;9.15;;;;;;;22.20;52.25;99586.72;10494787;28;20624;-35
2023/09/17 03:30:21;;;;;;;12.55;10.38;;;;;;;22.37;51.41;99570.16;10511627;28;20544;-37
2023/09/17 03:35:24;;;;;;;11.65;9.52;;;;;;;22.52;51.56;99553.84;10511987;28;20222;-35
2023/09/17 03:40:26;;;;;;;10.52;8.73;;;;;;;21.67;53.37;99568.47;10510909;28;20229;-35
2023/09/17 03:45:28;;;;;;;12.80;9.88;;;;;;;21.76;53.19;99534.25;10514813;28;20222;-35
2023/09/17 03:50:30;;;;;;;10.88;9.32;;;;;;;22.15;51.13;99579.38;10520607;28;20246;-35
2023/09/17 03:55:34;;;;;;;10.00;9.00;;;;;;;21.68;52.14;99591.06;10516984;28;20230;-37
2023/09/17 04:00:35;;;;;;;12.07;9.23;;;;;;;21.14;53.99;99556.66;10516031;28;20238;-35
2023/09/17 04:05:37;;;;;;;10.85;9.50;;;;;;;21.54;52.69;99560.78;10519056;28;20238;-35
2023/09/17 04:10:40;;;;;;;11.02;9.93;;;;;;;21.90;52.49;99518.22;10517450;28;20246;-35
2023/09/17 04:15:42;;;;;;;14.20;9.77;;;;;;;21.33;53.43;99557.91;10519792;28;21994;-35
2023/09/17 04:20:43;;;;;;;11.43;8.90;;;;;;;21.63;52.89;99504.78;10518557;28;20231;-35
2023/09/17 04:25:45;;;;;;;11.60;8.80;;;;;;;21.46;52.45;99559.41;10519351;28;20247;-35
2023/09/17 04:30:47;;;;;;;11.43;9.10;;;;;;;21.80;51.66;99559.03;10515748;28;20235;-35
2023/09/17 04:35:55;;;;;;;11.05;9.10;;;;;;;22.32;50.68;99552.72;10519725;28;20230;-35
2023/09/17 04:40:57;;;;;;;11.43;9.65;;;;;;;21.09;53.51;99597.44;10517109;28;20592;-35
2023/09/17 04:45:59;;;;;;;11.30;10.02;;;;;;;22.78;49.43;99570.25;10516734;28;20234;-35
2023/09/17 04:51:01;;;;;;;10.70;9.60;;;;;;;22.19;50.66;99582.38;10516619;28;20234;-37
2023/09/17 04:56:03;;;;;;;10.70;9.20;;;;;;;22.51;50.19;99577.56;10513749;28;20233;-35
2023/09/17 05:01:06;;;;;;;10.63;9.48;;;;;;;22.74;49.38;99583.63;10516903;28;20235;-36
2023/09/17 05:06:09;;;;;;;10.88;9.77;;;;;;;22.59;50.10;99583.56;10517445;28;20242;-36
2023/09/17 05:11:11;;;;;;;9.95;8.88;;;;;;;22.55;49.88;99587.94;10519107;28;20723;-36
2023/09/17 05:16:14;;;;;;;12.20;9.30;;;;;;;22.08;50.21;99647.72;10512611;28;20234;-36
2023/09/17 05:21:17;;;;;;;11.15;9.77;;;;;;;22.18;50.78;99581.53;10516608;28;20923;-37
2023/09/17 05:26:21;;;;;;;10.98;9.30;;;;;;;22.38;49.46;99596.31;10517705;28;20245;-37
2023/09/17 05:31:22;;;;;;;11.13;9.65;;;;;;;21.51;51.51;99632.91;10513758;28;20245;-37
2023/09/17 05:36:24;;;;;;;11.20;9.77;;;;;;;22.50;50.01;99594.16;10518472;28;20229;-35
2023/09/17 05:41:26;;;;;;;11.20;9.30;;;;;;;21.18;51.66;99682.97;10516944;28;20235;-35
2023/09/17 05:46:32;;;;;;;14.13;9.82;;;;;;;20.73;53.19;99646.03;10513778;28;20226;-35
2023/09/17 05:51:34;;;;;;;15.23;11.13;;;;;;;22.11;50.74;99551.00;10509942;28;20241;-35
2023/09/17 05:56:36;;;;;;;11.57;9.80;;;;;;;21.50;51.45;99631.28;10517365;28;20230;-35
2023/09/17 06:01:38;;;;;;;23.10;10.35;;;;;;;20.59;54.42;99602.94;10513750;28;20257;-36
2023/09/17 06:06:40;;;;;;;11.20;9.93;;;;;;;21.19;52.96;99617.41;10512501;28;20235;-37
2023/09/17 06:11:42;;;;;;;8.55;7.65;;;;;;;20.85;54.45;99611.38;10513476;28;20238;-35
2023/09/17 06:16:44;;;;;;;8.23;7.40;;;;;;;20.92;54.09;99609.28;10511429;28;20239;-36
2023/09/17 06:21:58;;;;;;;8.93;8.02;;;;;;;20.92;54.28;99646.53;10515612;28;20245;-35
2023/09/17 06:27:00;;;;;;;9.35;7.78;;;;;;;21.41;54.09;99589.31;10512947;28;20246;-35
2023/09/17 06:32:02;;;;;;;9.57;7.75;;;;;;;21.05;54.33;99603.44;10514791;28;20226;-35
2023/09/17 06:37:04;;;;;;;9.10;8.00;;;;;;;21.52;53.00;99628.28;10514585;28;20242;-35
2023/09/17 06:42:06;;;;;;;9.55;7.90;;;;;;;21.22;53.83;99629.66;10512460;28;20260;-35
2023/09/17 06:47:08;;;;;;;9.60;8.60;;;;;;;20.96;54.46;99631.34;10509870;28;20231;-36
2023/09/17 06:52:10;;;;;;;10.20;7.68;;;;;;;22.36;52.05;99568.53;10511558;28;20222;-36
2023/09/17 06:57:12;;;;;;;9.32;8.27;;;;;;;21.30;54.07;99609.31;10514681;28;20234;-36
2023/09/17 07:02:14;;;;;;;9.00;7.55;;;;;;;22.19;51.88;99615.06;10512490;28;20227;-36
2023/09/17 07:07:15;;;;;;;8.45;7.65;;;;;;;23.17;50.50;99588.84;10508933;28;20703;-36
2023/09/17 07:12:17;;;;;;;10.95;7.93;;;;;;;22.53;51.17;99634.56;10509547;28;20230;-36
2023/09/17 07:17:19;;;;;;;8.45;7.25;;;;;;;22.07;52.25;99627.00;10503646;28;20874;-36
2023/09/17 07:22:21;;;;;;;9.38;8.15;;;;;;;20.83;54.93;99662.47;10517395;28;20266;-36
2023/09/17 07:27:23;;;;;;;8.98;7.10;;;;;;;22.03;51.82;99660.47;10519526;28;20245;-35
2023/09/17 07:32:28;;;;;;;7.82;6.82;;;;;;;22.15;52.07;99653.75;10516345;28;20230;-35
2023/09/17 07:37:30;;;;;;;9.48;7.30;;;;;;;23.21;49.96;99600.84;10516751;28;20230;-35
2023/09/17 07:42:51;;;;;;;9.23;6.60;;;;;;;23.50;49.27;99605.72;10514754;28;20730;-35
2023/09/17 07:47:53;;;;;;;7.40;6.70;;;;;;;23.42;49.25;99615.31;10494764;28;20237;-35
2023/09/17 07:52:55;;;;;;;7.90;6.28;;;;;;;23.73;48.98;99620.72;10516910;28;20261;-36
2023/09/17 07:57:57;;;;;;;7.22;5.80;;;;;;;22.89;50.40;99673.66;10512658;28;20231;-36
2023/09/17 08:02:59;;;;;;;8.77;6.88;;;;;;;22.43;52.04;99657.13;10517483;28;20230;-36
2023/09/17 08:08:01;;;;;;;8.23;6.15;;;;;;;23.51;49.17;99626.47;10518776;28;20231;-36
2023/09/17 08:13:03;;;;;;;8.18;6.45;;;;;;;23.81;48.61;99637.38;10515152;28;21023;-36
2023/09/17 08:18:05;;;;;;;8.18;6.32;;;;;;;23.25;49.78;99630.06;10514880;28;20257;-35
2023/09/17 08:23:07;;;;;;;10.13;6.13;;;;;;;23.13;49.87;99669.59;10516673;28;20284;-35
2023/09/17 08:28:13;;;;;;;8.00;6.22;;;;;;;23.40;49.81;99614.78;10516827;28;20247;-35
2023/09/17 08:33:15;;;;;;;7.32;6.03;;;;;;;23.10;51.09;99613.69;10490268;28;20230;-37
2023/09/17 08:38:18;;;;;;;8.50;6.82;;;;;;;23.07;50.62;99612.31;10516017;28;20238;-38
2023/09/17 08:43:20;;;;;;;8.38;6.30;;;;;;;23.71;50.46;99603.81;10513903;28;20256;-38
2023/09/17 08:48:23;;;;;;;6.78;5.85;;;;;;;22.94;51.06;99645.53;10517541;28;20227;-37
2023/09/17 08:53:31;;;;;;;7.90;5.28;;;;;;;23.25;50.70;99631.97;10514015;28;20215;-44
2023/09/17 08:58:50;;;;;;;5.78;5.18;;;;;;;23.72;50.15;99608.16;10508837;28;20734;-44
2023/09/17 09:03:54;;;;;;;7.45;5.20;;;;;;;22.90;51.90;99633.56;10510244;28;20226;-44
2023/09/17 09:08:58;;;;;;;6.15;5.00;;;;;;;24.13;48.42;99614.31;10511107;28;20258;-44
2023/09/17 09:14:03;;;;;;;5.45;4.95;;;;;;;23.30;50.18;99609.28;10507230;28;20602;-44
2023/09/17 09:19:07;;;;;;;6.93;4.70;;;;;;;23.73;50.42;99618.00;10514124;28;20219;-44
2023/09/17 09:24:09;;;;;;;6.18;4.38;;;;;;;23.99;48.23;99643.34;10515818;28;20226;-45
2023/09/17 09:29:11;;;;;;;5.80;4.40;;;;;;;23.68;49.30;99676.19;10511386;28;20243;-44
2023/09/17 09:34:13;;;;;;;5.75;3.97;;;;;;;25.09;46.92;99605.84;10509298;28;20227;-44
2023/09/17 09:39:16;;;;;;;7.63;4.47;;;;;;;24.85;47.12;99632.28;10512000;28;20230;-45
2023/09/17 09:44:17;;;;;;;4.72;4.00;;;;;;;24.54;47.94;99640.66;10509151;28;20230;-45
2023/09/17 09:49:19;;;;;;;4.15;3.72;;;;;;;26.02;46.22;99594.00;10513828;28;20723;-45
2023/09/17 09:54:21;;;;;;;6.10;4.40;;;;;;;24.90;46.98;99622.16;10511822;28;20233;-45
2023/09/17 09:59:24;;;;;;;4.95;3.70;;;;;;;25.77;46.08;99575.94;10512406;28;20222;-45
2023/09/17 10:04:26;;;;;;;4.88;3.97;;;;;;;25.48;46.61;99609.63;10510495;28;20217;-44
2023/09/17 10:09:28;;;;;;;4.05;3.25;;;;;;;25.44;46.09;99584.75;10507629;28;20233;-44
2023/09/17 10:14:36;;;;;;;6.15;3.70;;;;;;;25.81;45.10;99585.19;10511126;28;20210;-46
2023/09/17 10:19:40;;;;;;;6.22;3.40;;;;;;;25.26;44.92;99615.59;10512686;28;20223;-45
2023/09/17 10:24:42;;;;;;;5.45;3.88;;;;;;;25.34;44.78;99594.97;10510164;28;20234;-45
2023/09/17 10:29:49;;;;;;;4.93;3.50;;;;;;;26.00;44.17;99560.59;10508786;28;20230;-44
2023/09/17 10:34:56;;;;;;;5.38;3.72;;;;;;;26.25;44.59;99534.78;10511396;28;20628;-46
2023/09/17 10:40:00;;;;;;;4.85;3.10;;;;;;;26.42;43.79;99550.72;10511287;28;20604;-45
2023/09/17 10:45:07;;;;;;;5.65;3.45;;;;;;;26.37;42.78;99554.34;10514447;28;20229;-44
2023/09/17 10:50:10;;;;;;;7.00;3.83;;;;;;;25.72;43.84;99576.78;10511288;28;20237;-45
2023/09/17 10:55:12;;;;;;;5.10;3.15;;;;;;;26.77;43.60;99526.56;10511560;28;20335;-45
2023/09/17 11:06:23;;;;;;;4.25;3.05;;;;;;;24.87;45.80;99505.06;10468608;27;20800;-74
2023/09/17 11:11:30;;;;;;;5.97;3.40;;;;;;;26.13;44.40;99485.84;10389166;28;20510;-75
2023/09/17 11:16:34;;;;;;;5.82;3.30;;;;;;;25.36;45.45;99522.41;10387624;28;20240;-74
2023/09/17 11:22:11;;;;;;;8.27;3.28;;;;;;;26.49;43.35;99490.78;10389004;28;20225;-75
2023/09/17 11:27:17;;;;;;;6.55;3.00;;;;;;;24.46;45.51;99559.22;10375380;28;20269;-73
2023/09/17 11:32:21;;;;;;;12.18;4.95;;;;;;;25.23;44.83;99536.78;10388676;28;20225;-73
2023/09/17 11:37:23;;;;;;;7.05;4.07;;;;;;;25.84;43.76;99481.31;10387462;28;20311;-72
2023/09/17 11:42:26;;;;;;;7.25;3.25;;;;;;;26.26;42.83;99494.44;10386468;28;20248;-71
2023/09/17 11:47:28;;;;;;;8.60;3.38;;;;;;;25.91;43.38;99526.69;10389113;28;20237;-75
2023/09/17 11:52:33;;;;;;;6.68;2.83;;;;;;;25.57;44.20;99528.44;10389952;28;20216;-75
2023/09/17 11:57:34;;;;;;;5.80;3.00;;;;;;;26.28;43.25;99498.50;10392080;28;20282;-74
2023/09/17 12:02:37;;;;;;;7.00;3.42;;;;;;;26.86;42.52;99475.38;10393966;28;20240;-76
2023/09/17 12:07:43;;;;;;;5.47;2.92;;;;;;;26.81;43.04;99483.72;10408253;28;20232;-73
2023/09/17 12:12:55;;;;;;;6.00;3.17;;;;;;;26.79;42.71;99472.22;10387995;28;20238;-71
2023/09/17 12:17:58;;;;;;;8.30;3.03;;;;;;;26.43;43.29;99483.75;10355118;28;20734;-72
2023/09/17 12:23:06;;;;;;;6.85;3.17;;;;;;;26.69;41.32;99486.91;10360984;28;20388;-75
2023/09/17 12:28:08;;;;;;;7.63;2.95;;;;;;;26.95;40.69;99440.63;10364497;28;20560;-75
2023/09/17 12:33:10;;;;;;;5.97;2.78;;;;;;;26.54;41.49;99441.31;10367209;28;20202;-74
2023/09/17 12:38:15;;;;;;;6.65;2.17;;;;;;;27.65;39.39;99446.13;10362300;28;20738;-73
2023/09/17 12:43:16;;;;;;;5.18;2.40;;;;;;;27.52;39.12;99449.72;10354847;28;20229;-72
2023/09/17 12:48:18;;;;;;;4.15;2.28;;;;;;;26.87;40.48;99479.78;10354173;28;21450;-73
2023/09/17 12:53:20;;;;;;;6.75;2.85;;;;;;;27.05;39.53;99463.50;10358335;28;20213;-73
2023/09/17 12:58:22;;;;;;;6.53;2.63;;;;;;;27.45;39.19;99450.94;10356479;28;20304;-73
2023/09/17 13:03:24;;;;;;;6.28;2.42;;;;;;;27.35;38.94;99458.59;10360478;28;20237;-73
2023/09/17 13:08:27;;;;;;;4.32;2.47;;;;;;;27.63;39.49;99451.94;10363551;28;20500;-74
2023/09/17 13:13:29;;;;;;;5.03;2.75;;;;;;;27.73;42.32;99395.94;10360578;28;20320;-72
2023/09/17 13:18:31;;;;;;;8.55;2.80;;;;;;;27.38;42.05;99400.25;10361534;28;20263;-73
2023/09/17 13:23:37;;;;;;;7.00;2.30;;;;;;;27.35;41.34;99392.66;10358716;28;20246;-73
2023/09/17 13:28:39;;;;;;;7.57;2.55;;;;;;;28.07;40.72;99367.13;10358334;28;20313;-73
2023/09/17 13:33:41;;;;;;;4.68;2.28;;;;;;;27.67;40.01;99372.44;10361111;28;20232;-72
2023/09/17 13:38:43;;;;;;;7.85;2.53;;;;;;;28.64;37.95;99360.97;10357658;28;20652;-73
2023/09/17 13:43:45;;;;;;;4.93;2.30;;;;;;;28.12;38.02;99366.16;10360408;28;20237;-73
2023/09/17 13:48:47;;;;;;;5.00;2.22;;;;;;;27.43;38.61;99375.44;10356733;28;20238;-73
2023/09/17 13:53:48;;;;;;;7.82;2.40;;;;;;;27.62;37.91;99378.06;10355695;28;20282;-74
2023/09/17 13:58:50;;;;;;;5.43;2.25;;;;;;;26.75;37.74;99392.44;10363409;28;20707;-74
2023/09/17 14:03:52;;;;;;;5.25;1.85;;;;;;;28.21;37.49;99336.84;10359452;28;20228;-72
2023/09/17 14:08:54;;;;;;;7.38;2.30;;;;;;;27.90;37.34;99323.81;10356547;28;20237;-73
2023/09/17 14:13:56;;;;;;;5.63;2.40;;;;;;;28.18;37.69;99340.16;10351612;28;20236;-73
2023/09/17 14:18:58;;;;;;;2.95;1.70;;;;;;;27.83;37.74;99320.69;10352819;28;20323;-73
2023/09/17 14:23:59;;;;;;;8.73;2.10;;;;;;;27.63;36.81;99341.19;10360125;28;20232;-73
2023/09/17 14:29:01;;;;;;;4.25;2.20;;;;;;;27.71;37.20;99323.19;10394154;22;20243;-36
2023/09/17 14:34:03;;;;;;;6.03;2.10;;;;;;;28.12;36.18;99305.66;10415627;28;20236;-35
2023/09/17 14:39:05;;;;;;;4.55;1.90;;;;;;;28.70;36.86;99301.16;10414797;28;20243;-35
2023/09/17 14:44:08;;;;;;;5.30;2.05;;;;;;;28.53;36.43;99312.88;10418462;28;20306;-35
2023/09/17 14:49:10;;;;;;;9.35;2.30;;;;;;;28.09;37.43;99298.88;10417464;28;20318;-36
2023/09/17 14:54:12;;;;;;;5.15;2.40;;;;;;;28.08;36.31;99313.75;10414530;28;20273;-36
2023/09/17 14:59:15;;;;;;;4.85;2.30;;;;;;;29.24;35.51;99254.94;10422804;28;20243;-36
2023/09/17 15:04:17;;;;;;;6.00;1.92;;;;;;;28.32;35.52;99316.16;10416655;28;20227;-36
2023/09/17 15:09:19;;;;;;;4.88;2.20;;;;;;;29.28;35.98;99263.38;10415551;28;20240;-36
2023/09/17 15:14:21;;;;;;;4.28;2.30;;;;;;;29.38;36.13;99259.50;10418923;28;20231;-36
2023/09/17 15:19:24;;;;;;;7.68;2.47;;;;;;;29.57;35.20;99242.59;10413140;28;20225;-36
2023/09/17 15:24:26;;;;;;;3.72;1.92;;;;;;;28.75;35.41;99293.56;10411436;28;20716;-34
2023/09/17 15:29:28;;;;;;;5.82;2.53;;;;;;;29.11;35.61;99283.41;10418523;28;20232;-34
2023/09/17 15:34:30;;;;;;;6.97;2.30;;;;;;;29.67;35.69;99250.56;10414818;28;20290;-34
2023/09/17 15:39:32;;;;;;;7.50;2.17;;;;;;;29.20;35.61;99265.00;10412095;28;20255;-34
2023/09/17 15:44:34;;;;;;;6.93;2.13;;;;;;;28.31;36.71;99265.03;10416621;28;20781;-34
2023/09/17 15:49:36;;;;;;;5.07;2.65;;;;;;;29.38;35.93;99245.72;10420946;28;20208;-34
2023/09/17 15:54:38;;;;;;;6.97;2.22;;;;;;;29.65;35.21;99231.59;10422528;28;20224;-34
2023/09/17 15:59:40;;;;;;;6.65;2.20;;;;;;;29.34;36.73;99224.31;10422566;28;20592;-34
2023/09/17 16:04:41;;;;;;;4.30;2.00;;;;;;;29.52;36.28;99222.38;10420821;28;20236;-34
2023/09/17 16:09:43;;;;;;;6.10;2.20;;;;;;;30.18;35.50;99213.00;10421938;28;20235;-34
2023/09/17 16:14:45;;;;;;;6.45;2.05;;;;;;;29.34;36.50;99253.81;10425103;28;20224;-34
2023/09/17 16:19:55;;;;;;;7.03;2.45;;;;;;;29.52;36.23;99211.34;10419729;28;20224;-34
2023/09/17 16:24:57;;;;;;;4.47;2.45;;;;;;;28.86;37.38;99238.19;10418469;28;20246;-33
2023/09/17 16:29:59;;;;;;;8.85;2.40;;;;;;;28.62;37.59;99244.91;10421375;28;20243;-34
2023/09/17 16:35:05;;;;;;;4.20;1.73;;;;;;;28.29;37.48;99239.78;10420703;28;20228;-33
2023/09/17 16:40:07;;;;;;;4.78;2.13;;;;;;;28.59;37.42;99234.53;10419206;28;20205;-34
2023/09/17 16:45:09;;;;;;;6.22;2.20;;;;;;;27.97;37.97;99243.63;10420869;28;20572;-33
2023/09/17 16:50:11;;;;;;;4.50;2.30;;;;;;;28.84;37.63;99199.97;10420291;28;20579;-34
2023/09/17 16:55:13;;;;;;;4.88;2.30;;;;;;;29.02;37.23;99216.53;10421729;28;20224;-33
2023/09/17 17:00:15;;;;;;;6.47;2.03;;;;;;;28.15;38.68;99250.03;10419482;28;20232;-34
2023/09/17 17:05:18;;;;;;;6.22;2.20;;;;;;;28.79;37.30;99205.63;10418894;28;20232;-34
2023/09/17 17:10:20;;;;;;;5.18;2.72;;;;;;;29.13;37.09;99218.66;10419425;28;20236;-35
2023/09/17 17:15:22;;;;;;;6.47;2.35;;;;;;;29.22;37.93;99209.56;10421653;28;20689;-33
2023/09/17 17:20:24;;;;;;;6.65;2.75;;;;;;;29.39;37.26;99190.28;10422318;28;20275;-34
2023/09/17 17:25:26;;;;;;;3.88;2.47;;;;;;;29.32;36.97;99198.25;10427071;28;20329;-35
2023/09/17 17:30:28;;;;;;;8.07;2.78;;;;;;;29.20;37.49;99211.84;10429355;28;20323;-34
2023/09/17 17:35:30;;;;;;;6.82;2.75;;;;;;;28.85;37.77;99228.31;10424045;28;20236;-34
2023/09/17 17:40:32;;;;;;;6.43;2.60;;;;;;;28.90;37.62;99226.22;10423309;28;20246;-33
2023/09/17 17:45:34;;;;;;;8.48;2.40;;;;;;;28.38;37.80;99204.88;10419338;28;20239;-33
2023/09/17 17:55:49;;;;;;;8.57;2.60;;;;;;;27.63;39.44;99192.81;10375598;28;20228;-35
2023/09/17 18:00:52;;;;;;;10.98;3.42;;;;;;;26.23;40.76;99204.41;10381935;28;20817;-35
2023/09/17 18:05:57;;;;;;;6.50;2.50;;;;;;;26.83;40.25;99168.59;10372691;28;20606;-36
2023/09/17 18:11:00;;;;;;;6.95;2.75;;;;;;;27.11;40.08;99143.81;10379151;28;20236;-35
2023/09/17 18:16:01;;;;;;;6.25;3.05;;;;;;;26.25;41.13;99159.13;10381574;28;20246;-35
2023/09/17 18:21:03;;;;;;;5.10;2.67;;;;;;;27.01;40.43;99142.13;10378023;28;20239;-35
2023/09/17 18:26:05;;;;;;;8.23;2.55;;;;;;;27.76;38.94;99128.72;10374511;28;20244;-35
2023/09/17 18:31:08;;;;;;;5.38;2.75;;;;;;;26.35;40.57;99201.94;10378181;28;20666;-35
2023/09/17 18:36:12;;;;;;;5.22;2.65;;;;;;;26.91;39.98;99175.28;10377855;28;20229;-35
2023/09/17 18:41:13;;;;;;;7.75;2.85;;;;;;;25.32;42.65;99191.94;10352681;28;20275;-35
2023/09/17 18:46:17;;;;;;;8.02;2.97;;;;;;;25.84;41.55;99190.00;10336234;28;20395;-35
2023/09/17 18:51:20;;;;;;;6.45;2.75;;;;;;;26.46;41.34;99144.97;10338669;28;20605;-35
2023/09/17 18:56:22;;;;;;;5.18;2.55;;;;;;;25.48;42.71;99174.16;10339151;28;20240;-35
2023/09/17 19:01:24;;;;;;;5.88;2.70;;;;;;;25.62;42.92;99142.13;10333723;28;20253;-35
2023/09/17 19:06:27;;;;;;;8.02;3.00;;;;;;;24.86;44.28;99168.78;10338013;28;20577;-35
2023/09/17 19:11:29;;;;;;;5.40;2.92;;;;;;;25.01;44.01;99148.59;10338092;28;20233;-35
2023/09/17 19:16:30;;;;;;;5.43;2.75;;;;;;;27.49;39.95;99143.44;10336343;28;20229;-35
2023/09/17 19:21:32;;;;;;;9.30;2.95;;;;;;;27.27;40.47;99182.72;10335750;28;20684;-35
2023/09/17 19:26:34;;;;;;;6.05;2.70;;;;;;;26.88;42.07;99179.47;10345448;28;20235;-35
2023/09/17 19:31:36;;;;;;;5.45;3.03;;;;;;;27.54;40.97;99173.53;10349054;28;20237;-35
2023/09/17 19:36:39;;;;;;;7.22;3.00;;;;;;;27.46;41.60;99183.34;10348450;28;20776;-35
2023/09/17 19:41:41;;;;;;;7.82;2.80;;;;;;;26.87;42.21;99191.56;10360175;28;20374;-35
2023/09/17 19:46:42;;;;;;;4.80;2.42;;;;;;;26.77;42.27;99191.78;10344394;28;20242;-35
2023/09/17 19:51:44;;;;;;;9.38;3.40;;;;;;;24.38;45.81;99205.22;10340500;28;20723;-35
2023/09/17 19:56:46;;;;;;;5.45;2.67;;;;;;;26.52;42.77;99141.81;10345282;28;20240;-34
2023/09/17 20:01:48;;;;;;;6.43;2.60;;;;;;;26.29;42.55;99159.31;10341322;28;20243;-35
2023/09/17 20:06:50;;;;;;;6.32;2.92;;;;;;;26.23;43.01;99152.31;10344056;28;20569;-34
2023/09/17 20:11:57;;;;;;;7.68;3.40;;;;;;;26.50;42.18;99151.47;10340926;28;20978;-35
2023/09/17 20:16:59;;;;;;;6.70;2.80;;;;;;;24.81;44.73;99201.69;10336192;28;20617;-35
2023/09/17 20:22:03;;;;;;;7.47;3.53;;;;;;;23.05;47.81;99186.09;10339249;28;20241;-34
2023/09/17 20:27:05;;;;;;;9.88;3.30;;;;;;;23.85;46.41;99177.88;10341745;28;20238;-36
2023/09/17 20:32:07;;;;;;;5.00;3.30;;;;;;;24.19;46.18;99134.06;10340872;28;21644;-34
2023/09/17 20:37:09;;;;;;;4.65;3.17;;;;;;;24.24;46.14;99125.00;10337276;28;20256;-34
2023/09/17 20:42:11;;;;;;;4.20;2.88;;;;;;;25.53;43.79;99123.97;10339964;28;20267;-35
2023/09/17 20:47:13;;;;;;;4.90;3.00;;;;;;;22.82;48.02;99189.50;10338107;28;20248;-34
2023/09/17 20:52:15;;;;;;;9.77;2.90;;;;;;;24.17;46.29;99128.09;10333955;28;20245;-34
2023/09/17 20:57:19;;;;;;;8.30;3.90;;;;;;;22.78;48.71;99142.09;10334937;28;20417;-34
2023/09/17 21:02:21;;;;;;;7.32;3.10;;;;;;;22.59;49.13;99159.09;10337865;28;20237;-34
2023/09/17 21:07:24;;;;;;;5.13;2.90;;;;;;;23.93;46.27;99160.84;10380497;28;20248;-34
2023/09/17 21:12:28;;;;;;;8.25;3.60;;;;;;;23.23;47.76;99129.25;10346133;28;20230;-34
2023/09/17 21:17:30;;;;;;;8.18;3.20;;;;;;;24.63;45.39;99105.63;10339281;28;20232;-35
2023/09/17 21:22:34;;;;;;;7.68;4.05;;;;;;;23.91;46.62;99135.75;10329216;28;20244;-34
2023/09/17 21:27:37;;;;;;;6.68;3.65;;;;;;;22.34;49.51;99163.50;10376210;28;20229;-35
2023/09/17 21:32:41;;;;;;;10.35;3.80;;;;;;;22.87;48.46;99138.44;10377007;28;20980;-37
2023/09/17 21:37:43;;;;;;;6.90;3.10;;;;;;;23.47;47.25;99125.78;10377596;28;20361;-34
2023/09/17 21:42:44;;;;;;;6.78;3.20;;;;;;;22.46;48.88;99126.94;10381287;28;20236;-35
2023/09/17 21:47:46;;;;;;;5.90;3.03;;;;;;;22.25;48.92;99121.59;10375591;28;20277;-35
2023/09/17 21:52:48;;;;;;;6.25;3.75;;;;;;;22.61;49.04;99145.19;10376673;28;20643;-36
2023/09/17 21:57:50;;;;;;;8.95;3.53;;;;;;;23.39;48.63;99076.13;10382491;28;20232;-35
2023/09/17 22:02:52;;;;;;;8.23;3.78;;;;;;;23.28;48.20;99090.16;10374804;28;20236;-35
2023/09/17 22:07:57;;;;;;;6.28;3.35;;;;;;;20.64;53.08;99135.47;10380226;28;20224;-35
2023/09/17 22:12:59;;;;;;;8.20;3.78;;;;;;;19.85;55.40;99107.38;10374606;28;20241;-36
2023/09/17 22:18:01;;;;;;;6.35;4.00;;;;;;;20.42;54.15;99067.72;10373075;28;20793;-36
2023/09/17 22:23:03;;;;;;;6.07;3.72;;;;;;;21.22;51.67;99056.44;10378599;28;20737;-36
2023/09/17 22:28:05;;;;;;;6.63;3.63;;;;;;;20.53;53.12;99103.09;10377498;28;20965;-35
2023/09/17 22:33:07;;;;;;;8.20;4.05;;;;;;;20.44;53.77;99056.59;10374232;28;20801;-35
2023/09/17 22:38:09;;;;;;;9.32;3.90;;;;;;;22.79;49.28;99038.16;10336489;28;20241;-35
2023/09/17 22:43:10;;;;;;;9.38;4.03;;;;;;;21.97;50.10;99104.78;10335420;28;20244;-35
2023/09/17 22:48:12;;;;;;;5.45;3.70;;;;;;;19.93;54.33;99106.09;10337981;28;20214;-35
2023/09/17 22:53:14;;;;;;;7.15;3.85;;;;;;;19.76;54.78;99087.25;10332845;28;20251;-35
2023/09/17 22:58:16;;;;;;;5.68;3.85;;;;;;;20.60;53.29;99069.16;10334096;28;20209;-35
2023/09/17 23:03:18;;;;;;;6.50;3.92;;;;;;;20.87;52.45;99068.13;10339080;28;20230;-35
2023/09/17 23:08:20;;;;;;;6.85;3.75;;;;;;;19.68;55.22;99104.03;10340093;28;20206;-35
2023/09/17 23:13:22;;;;;;;8.20;3.95;;;;;;;19.88;54.58;99078.91;10329906;28;20230;-35
2023/09/17 23:18:24;;;;;;;7.03;3.88;;;;;;;20.23;53.81;99053.03;10335616;28;20205;-35
2023/09/17 23:23:26;;;;;;;7.68;3.92;;;;;;;19.94;53.98;99050.72;10336380;28;20958;-35
2023/09/17 23:28:32;;;;;;;9.25;4.53;;;;;;;19.62;54.38;99075.22;10342375;28;20267;-36
2023/09/17 23:33:35;;;;;;;7.40;3.78;;;;;;;21.17;51.61;99020.25;10334845;28;20235;-36